OMDB Airport Information

Runway Information
Runway 12L Length 13124 ft width 197 ft
Elevation 13 ft Threshold 1312 ft Heading 122
Runway 30R Length 13124 ft Width 197 ft
Elevation 34 ft Threshold 0 ft Heading 302
Runway 12R Length 13124 ft width 151 ft
Elevation 13 ft Threshold 394 ft Heading 121
Runway 30L Length 13124 ft Width 151 ft
Elevation 34 ft Threshold 2953 ft Heading 301
Airport Frequencies
Type ARR Name ARR Frequency 124.9 MHZ
Type ATIS Name ATIS Frequency 131.7 MHZ
Type DEP Name DEP Frequency 124.45 MHZ
Type GND Name GND Frequency 118.35 MHZ
Type TWR Name TWR Frequency 118.75 MHZ
Airport Navaids
Type VOR-DME Name Dubai Frequency 115700 KHZ
Airport Weather Information & NOTAM
ADDS - METARS form results

(0812 UTC 22 May 2018)
 
METAR text: OMDB 220800Z VRB04KT CAVOK 39/05 Q1010 BECMG 34012KT
Conditions at: OMDB (DUBAI INTL AIRPO, AE) observed 0800 UTC 22 May 2018
Temperature: 39.0°C (102°F)
Dewpoint: 5.0°C (41°F) [RH = 12%]
Pressure (altimeter): 29.82 inches Hg (1010.0 mb)
Winds: variable direction winds at 5 MPH (4 knots; 2.1 m/s)
Visibility: 6 or more miles (10+ km)
Ceiling: ceiling and visibility are OK
Clouds: unknown
Weather: no significant weather observed at this time